Time;durP1;ratioP1;P1;durP2;ratioP2;P2;SDS_P1;SDS_P2;PMS_P1;PMS_P2;Temp;Humidity;BMP_temperature;BMP_pressure;BME280_temperature;BME280_humidity;BME280_pressure;Samples;Min_cycle;Max_cycle;Signal;HPM_P1;HPM_P2
2023/05/07 00:00:26;;;;;;;47.97;33.60;;;16.10;99.90;;;16.52;100.00;101479.56;5113787;28;20118;-73
2023/05/07 00:02:55;;;;;;;43.30;33.10;;;16.20;99.90;;;16.61;100.00;101473.16;5113720;28;20561;-73
2023/05/07 00:05:23;;;;;;;46.30;33.90;;;16.20;99.90;;;16.49;100.00;101481.41;5113627;28;20078;-73
2023/05/07 00:07:53;;;;;;;43.15;33.55;;;16.10;99.90;;;16.39;100.00;101477.13;5113721;28;20074;-73
2023/05/07 00:10:22;;;;;;;44.55;33.63;;;16.00;99.90;;;16.43;100.00;101478.81;5113628;28;20492;-73
2023/05/07 00:12:50;;;;;;;46.42;33.63;;;16.00;99.90;;;16.51;100.00;101483.13;5113025;28;20047;-73
2023/05/07 00:15:18;;;;;;;44.17;33.08;;;16.10;99.90;;;16.36;100.00;101472.72;5109677;28;20039;-73
2023/05/07 00:17:47;;;;;;;46.17;35.05;;;16.00;99.90;;;16.50;100.00;101484.06;5113544;28;20447;-73
2023/05/07 00:20:15;;;;;;;45.47;34.33;;;16.10;99.90;;;16.53;100.00;101486.66;5113746;28;20462;-73
2023/05/07 00:22:43;;;;;;;47.90;34.80;;;16.10;99.90;;;16.45;100.00;101477.91;5113460;28;20040;-73
2023/05/07 00:25:13;;;;;;;48.70;35.25;;;16.10;99.90;;;16.46;100.00;101484.97;5113672;28;20043;-73
2023/05/07 00:27:41;;;;;;;44.70;34.13;;;16.10;99.90;;;16.44;100.00;101478.78;5113689;28;20469;-73
2023/05/07 00:30:11;;;;;;;46.17;34.58;;;16.10;99.90;;;16.41;100.00;101478.88;5095258;28;20297;-73
2023/05/07 00:32:40;;;;;;;42.15;33.85;;;16.20;99.90;;;16.03;100.00;101388.78;5113449;28;20040;-73
2023/05/07 00:35:10;;;;;;;43.40;32.92;;;16.20;99.90;;;16.42;100.00;101477.03;5113504;28;20104;-73
2023/05/07 00:37:38;;;;;;;44.07;31.93;;;16.10;99.90;;;16.36;100.00;101467.38;5113540;28;20047;-73
2023/05/07 00:40:09;;;;;;;47.38;34.65;;;16.00;99.90;;;16.44;100.00;101472.56;5095144;28;20100;-73
2023/05/07 00:42:40;;;;;;;41.50;33.25;;;16.00;99.90;;;16.50;100.00;101465.34;5113360;28;20131;-73
2023/05/07 00:45:10;;;;;;;;;;;16.10;99.90;;;16.55;100.00;101463.47;5113899;28;20089;-73
2023/05/07 00:47:39;;;;;;;41.85;31.80;;;16.20;99.90;;;16.57;100.00;101472.34;5113392;28;19919;-73
2023/05/07 00:50:10;;;;;;;41.42;31.85;;;16.20;99.90;;;16.52;100.00;101466.22;5113265;28;20040;-73
2023/05/07 00:52:41;;;;;;;43.25;33.08;;;16.20;99.90;;;16.54;100.00;101468.84;5113380;28;20135;-73
2023/05/07 00:55:10;;;;;;;43.00;33.53;;;16.20;99.90;;;16.55;100.00;101470.63;5112980;28;20043;-73
2023/05/07 00:57:42;;;;;;;40.83;31.70;;;16.20;99.90;;;16.63;100.00;101471.34;5086843;28;20040;-73
2023/05/07 01:00:13;;;;;;;40.13;30.55;;;16.20;99.90;;;16.57;100.00;101463.47;5094988;28;20067;-73
2023/05/07 01:02:43;;;;;;;43.30;32.78;;;16.20;99.90;;;16.30;100.00;101407.88;5113241;28;20068;-73
2023/05/07 01:05:15;;;;;;;37.38;29.92;;;16.20;99.90;;;16.59;100.00;101458.97;5112666;28;20108;-73
2023/05/07 01:07:45;;;;;;;37.83;30.70;;;16.20;99.90;;;16.72;100.00;101456.03;5108757;28;20051;-73
2023/05/07 01:10:14;;;;;;;37.88;30.92;;;16.40;99.90;;;16.75;100.00;101449.72;5109316;28;20043;-73
2023/05/07 01:12:45;;;;;;;37.40;28.80;;;16.40;99.90;;;16.88;99.99;101449.44;5113043;28;20039;-73
2023/05/07 01:15:14;;;;;;;39.55;29.95;;;16.50;99.90;;;16.78;99.30;101453.22;5094903;28;20142;-73
2023/05/07 01:17:44;;;;;;;36.85;29.95;;;16.50;99.90;;;16.59;99.56;101451.81;5113097;28;20096;-73
2023/05/07 01:20:24;;;;;;;;;;;16.30;99.90;;;16.67;99.93;101449.88;5091519;28;20039;-73
2023/05/07 01:22:56;;;;;;;36.92;29.92;;;16.40;99.90;;;16.53;99.82;101446.59;5095950;28;19954;-73
2023/05/07 01:25:25;;;;;;;39.55;29.80;;;16.20;99.90;;;16.27;99.98;101391.00;5090902;28;20051;-73
2023/05/07 01:27:57;;;;;;;35.97;27.63;;;16.20;99.90;;;16.47;99.75;101446.72;5098918;28;20396;-73
2023/05/07 01:30:30;;;;;;;35.05;28.08;;;16.10;99.90;;;16.47;99.94;101441.38;5087281;28;20043;-73
2023/05/07 01:33:02;;;;;;;;;;;16.10;99.90;;;16.58;99.84;101441.16;5087038;28;20422;-73
2023/05/07 01:35:37;;;;;;;39.88;28.65;;;16.30;99.90;;;16.66;99.32;101447.25;5098772;28;20034;-73
2023/05/07 01:38:08;;;;;;;38.72;29.30;;;16.30;99.90;;;16.59;99.65;101446.47;5116985;28;20043;-73
2023/05/07 01:40:36;;;;;;;34.58;28.73;;;16.30;99.90;;;16.55;100.00;101439.44;5116914;28;20130;-74
2023/05/07 01:43:05;;;;;;;37.97;29.35;;;16.20;99.90;;;16.58;100.00;101434.03;5098523;28;20492;-73
2023/05/07 01:45:36;;;;;;;34.72;29.05;;;16.30;99.90;;;16.66;99.82;101448.13;5086635;28;20052;-73
2023/05/07 01:48:05;;;;;;;37.35;29.15;;;16.30;99.90;;;16.59;99.61;101419.75;5086368;28;20409;-73
2023/05/07 01:50:35;;;;;;;38.10;29.67;;;16.40;99.90;;;15.94;99.58;101316.03;5116589;28;20048;-73
2023/05/07 01:53:03;;;;;;;35.72;29.10;;;16.40;99.90;;;16.63;100.00;101434.81;5098256;28;20039;-73
2023/05/07 01:55:33;;;;;;;36.97;29.52;;;16.40;99.90;;;16.60;99.99;101442.03;5090052;28;20553;-73
2023/05/07 01:58:01;;;;;;;37.85;29.25;;;16.30;99.90;;;16.34;100.00;101431.81;5098242;28;20101;-73
2023/05/07 02:00:30;;;;;;;34.08;28.17;;;16.10;99.90;;;16.36;100.00;101435.31;5098226;28;20048;-73
2023/05/07 02:02:59;;;;;;;37.38;29.33;;;16.00;99.90;;;16.41;100.00;101436.13;5098157;28;20058;-73
2023/05/07 02:05:39;;;;;;;35.63;28.58;;;16.00;99.90;;;16.29;100.00;101436.38;5063536;28;20499;-73
2023/05/07 02:08:21;;;;;;;34.67;28.27;;;16.00;99.90;;;16.18;100.00;101417.84;5071368;28;20080;-73
2023/05/07 02:10:51;;;;;;;35.08;28.30;;;16.00;99.90;;;16.54;100.00;101445.69;5065995;28;20417;-73
2023/05/07 02:13:19;;;;;;;35.25;29.40;;;16.10;99.90;;;16.65;100.00;101450.81;5063933;28;20474;-73
2023/05/07 02:15:50;;;;;;;35.03;28.15;;;16.30;99.90;;;16.78;100.00;101455.88;5066995;28;20044;-73
2023/05/07 02:18:19;;;;;;;36.35;28.88;;;16.40;99.90;;;16.82;100.00;101448.72;5060352;28;20498;-73
2023/05/07 02:20:47;;;;;;;31.60;27.17;;;16.50;99.90;;;16.94;100.00;101451.97;5062271;28;20444;-73
2023/05/07 02:23:16;;;;;;;35.97;28.02;;;16.60;99.90;;;16.96;100.00;101447.50;5072174;28;20059;-73
2023/05/07 02:25:44;;;;;;;32.83;28.15;;;16.60;99.90;;;16.94;99.55;101451.09;5064596;28;20509;-73
2023/05/07 02:28:14;;;;;;;32.22;27.48;;;16.70;99.90;;;17.03;99.75;101443.75;5071295;28;20055;-73
2023/05/07 02:30:49;;;;;;;33.60;27.77;;;16.70;99.90;;;17.19;99.10;101444.31;5062491;28;20380;-73
2023/05/07 02:33:18;;;;;;;35.63;27.80;;;16.80;99.90;;;17.07;98.87;101444.59;5073196;28;20090;-73
2023/05/07 02:35:47;;;;;;;32.85;27.70;;;16.80;99.90;;;17.06;99.29;101449.06;5061970;28;20099;-73
2023/05/07 02:38:16;;;;;;;32.13;27.17;;;16.70;99.90;;;17.20;99.05;101440.72;5072160;28;20841;-73
2023/05/07 02:40:45;;;;;;;30.90;27.45;;;16.80;99.90;;;17.29;98.63;101442.31;5064044;28;20394;-73
2023/05/07 02:43:15;;;;;;;32.60;26.58;;;17.00;99.90;;;17.43;97.99;101462.47;5063258;28;20040;-73
2023/05/07 02:45:46;;;;;;;32.50;27.17;;;17.10;99.90;;;17.51;97.56;101449.84;5061608;28;20044;-73
2023/05/07 02:48:16;;;;;;;31.15;27.15;;;17.20;99.90;;;17.60;97.06;101452.28;5066519;28;20084;-73
2023/05/07 02:50:44;;;;;;;32.60;26.55;;;17.20;99.90;;;17.51;96.96;101462.34;5062030;28;20073;-73
2023/05/07 02:53:15;;;;;;;35.83;30.35;;;17.20;99.90;;;17.29;97.31;101450.31;5072634;28;20463;-73
2023/05/07 02:55:43;;;;;;;34.53;29.98;;;17.10;99.90;;;17.17;98.27;101449.69;5062960;28;20049;-73
2023/05/07 02:58:12;;;;;;;35.75;29.83;;;16.90;99.90;;;17.15;98.24;101455.97;5071720;28;20049;-73
2023/05/07 03:00:43;;;;;;;35.75;31.00;;;16.90;99.90;;;17.13;98.67;101460.47;5060515;28;20098;-73
2023/05/07 03:03:32;;;;;;;38.85;30.73;;;16.80;99.90;;;17.02;99.29;101463.41;5069712;28;20044;-73
2023/05/07 03:06:00;;;;;;;37.17;31.75;;;16.70;99.90;;;17.04;99.40;101456.22;5115510;28;20104;-73
2023/05/07 03:08:28;;;;;;;37.58;32.63;;;16.70;99.90;;;16.95;99.75;101455.53;5096907;28;20036;-73
2023/05/07 03:10:57;;;;;;;40.30;32.80;;;16.70;99.90;;;16.89;100.00;101451.22;5088806;28;20082;-73
2023/05/07 03:13:25;;;;;;;39.10;33.63;;;16.60;99.90;;;16.88;100.00;101432.50;5096851;28;20048;-74
2023/05/07 03:15:55;;;;;;;36.17;31.73;;;16.60;99.90;;;16.84;100.00;101447.75;5096796;28;20071;-73
2023/05/07 03:18:24;;;;;;;36.60;32.33;;;16.60;99.90;;;16.75;100.00;101453.28;5115101;28;20068;-73
2023/05/07 03:20:53;;;;;;;40.58;33.35;;;16.40;99.90;;;16.81;100.00;101458.50;5096632;28;20043;-73
2023/05/07 03:23:21;;;;;;;40.10;32.75;;;16.40;99.90;;;16.70;100.00;101452.50;5115150;28;20047;-73
2023/05/07 03:25:52;;;;;;;36.47;32.30;;;16.40;99.90;;;16.64;100.00;101441.06;5088491;28;20040;-73
2023/05/07 03:28:20;;;;;;;36.75;31.35;;;16.30;99.90;;;16.63;100.00;101441.94;5096492;28;20059;-73
2023/05/07 03:30:58;;;;;;;40.90;33.08;;;16.30;99.90;;;16.69;100.00;101452.50;5085166;28;20460;-74
2023/05/07 03:33:27;;;;;;;39.22;33.25;;;16.30;99.90;;;16.76;100.00;101447.00;5110782;28;20366;-73
2023/05/07 03:35:55;;;;;;;39.70;34.28;;;16.40;99.90;;;16.61;100.00;101417.06;5096138;28;20036;-73
2023/05/07 03:38:26;;;;;;;39.63;34.35;;;16.40;99.90;;;16.84;100.00;101437.03;5088330;28;20511;-73
2023/05/07 03:40:54;;;;;;;38.58;34.33;;;16.50;99.90;;;16.66;100.00;101409.84;5095984;28;20050;-73
2023/05/07 03:43:23;;;;;;;40.78;33.85;;;16.50;99.90;;;16.82;100.00;101438.00;5088184;28;20047;-74
2023/05/07 03:46:00;;;;;;;38.78;34.58;;;16.50;99.90;;;16.65;100.00;101441.00;5114368;28;20081;-73
2023/05/07 03:48:30;;;;;;;38.53;33.25;;;16.40;99.90;;;16.49;100.00;101444.03;5105970;28;20134;-73
2023/05/07 03:51:00;;;;;;;38.27;33.23;;;16.20;99.90;;;16.39;100.00;101437.94;5096131;28;20043;-73
2023/05/07 03:53:33;;;;;;;39.55;33.72;;;16.10;99.90;;;16.31;100.00;101437.22;5087644;28;20165;-73
2023/05/07 03:56:02;;;;;;;35.88;32.00;;;16.10;99.90;;;16.42;100.00;101445.00;5095727;28;20039;-73
2023/05/07 03:58:35;;;;;;;36.85;32.72;;;16.10;99.90;;;16.46;100.00;101449.38;5087900;28;20048;-73
2023/05/07 04:01:09;;;;;;;35.60;30.73;;;16.10;99.90;;;16.52;100.00;101451.97;5089007;28;20058;-73
2023/05/07 04:03:38;;;;;;;36.22;31.27;;;16.10;99.90;;;16.56;100.00;101462.56;5113987;28;20181;-73
2023/05/07 04:06:07;;;;;;;38.25;33.13;;;16.10;99.90;;;16.82;100.00;101470.09;5113912;28;20100;-73
2023/05/07 04:08:36;;;;;;;34.67;30.48;;;16.40;99.90;;;16.89;100.00;101467.25;5095786;28;20052;-73
2023/05/07 04:11:06;;;;;;;34.60;30.73;;;16.50;99.90;;;17.07;100.00;101461.50;5095827;28;20097;-73
2023/05/07 04:13:36;;;;;;;33.38;29.85;;;16.70;99.90;;;17.25;100.00;101462.03;5095680;28;20086;-73
2023/05/07 04:16:09;;;;;;;32.58;29.05;;;16.90;99.90;;;17.34;100.00;101465.38;5083861;28;20044;-73
2023/05/07 04:18:38;;;;;;;31.90;28.45;;;17.00;99.90;;;17.43;100.00;101467.84;5075683;28;20048;-73
2023/05/07 04:21:07;;;;;;;32.85;29.27;;;17.10;99.90;;;17.51;100.00;101476.59;5095491;28;20084;-73
2023/05/07 04:23:38;;;;;;;30.92;27.77;;;17.20;99.90;;;17.58;99.38;101475.53;5095686;28;20047;-73
2023/05/07 04:26:11;;;;;;;30.48;27.20;;;17.20;99.90;;;17.65;98.85;101477.13;5095228;28;20575;-73
2023/05/07 04:28:43;;;;;;;31.02;27.10;;;17.30;99.90;;;16.96;98.08;101335.22;5087067;28;20056;-73
2023/05/07 04:31:14;;;;;;;31.75;26.52;;;17.40;99.90;;;17.63;97.57;101464.72;5088094;28;20432;-74
2023/05/07 04:33:42;;;;;;;31.85;26.13;;;17.50;99.90;;;17.80;97.17;101467.88;5075602;28;20052;-73
2023/05/07 04:36:14;;;;;;;28.45;25.38;;;17.50;99.90;;;17.66;96.53;101470.88;5095319;28;20488;-73
2023/05/07 04:38:53;;;;;;;30.83;26.42;;;17.40;99.90;;;17.04;97.39;101402.75;5087315;28;20051;-73
2023/05/07 04:41:22;;;;;;;28.90;25.73;;;17.20;99.90;;;17.47;98.21;101469.53;5113515;28;20053;-73
2023/05/07 04:43:51;;;;;;;29.70;26.60;;;17.10;99.90;;;17.31;98.82;101470.78;5083206;28;20098;-73
2023/05/07 04:46:36;;;;;;;;;;;;;;;;;;;;;
2023/05/07 04:49:06;;;;;;;30.45;26.63;;;17.00;99.90;;;17.47;98.41;101469.53;5082415;28;20093;-73
2023/05/07 04:51:35;;;;;;;29.67;26.55;;;17.10;99.90;;;17.55;97.91;101469.38;5091422;28;20149;-73
2023/05/07 04:54:04;;;;;;;28.83;25.85;;;17.10;99.90;;;17.47;98.12;101471.31;5087772;28;20422;-73
2023/05/07 04:56:32;;;;;;;28.70;25.70;;;17.10;99.90;;;17.61;97.90;101469.25;5095169;28;20437;-73
2023/05/07 04:59:01;;;;;;;30.50;26.67;;;17.20;99.90;;;17.70;97.59;101474.38;5112770;28;20051;-73
2023/05/07 05:01:32;;;;;;;29.30;26.20;;;17.30;99.90;;;17.66;97.37;101475.34;5094967;28;20062;-74
2023/05/07 05:04:01;;;;;;;32.97;27.05;;;17.30;99.90;;;17.61;96.95;101477.25;5113134;28;20110;-74
2023/05/07 05:06:30;;;;;;;29.30;26.20;;;17.30;99.90;;;17.36;97.42;101446.63;5094917;28;20045;-73
2023/05/07 05:08:59;;;;;;;29.25;25.70;;;17.20;99.90;;;17.54;97.58;101479.19;5095269;28;20039;-73
2023/05/07 05:11:29;;;;;;;28.40;25.30;;;17.20;99.90;;;17.59;97.57;101465.72;5094845;28;20040;-73
2023/05/07 05:13:57;;;;;;;28.50;25.55;;;17.30;99.90;;;17.80;97.09;101487.50;5074618;28;20147;-74
2023/05/07 05:16:26;;;;;;;26.48;23.88;;;17.40;99.90;;;17.83;96.71;101484.72;5094790;28;20035;-73
2023/05/07 05:18:56;;;;;;;26.67;23.73;;;17.50;99.90;;;17.92;96.32;101481.81;5113079;28;20050;-73
2023/05/07 05:21:25;;;;;;;25.80;22.92;;;17.60;99.90;;;17.99;96.01;101510.22;5094864;28;20050;-73
2023/05/07 05:23:59;;;;;;;26.95;24.17;;;17.60;99.90;;;17.75;96.28;101491.22;5086731;28;20089;-73
2023/05/07 05:26:28;;;;;;;29.00;24.90;;;17.50;99.90;;;17.62;97.02;101487.94;5094961;28;20051;-73
2023/05/07 05:28:58;;;;;;;28.23;25.40;;;17.30;99.90;;;17.61;97.16;101485.28;5094759;28;20046;-73
2023/05/07 05:31:29;;;;;;;29.45;24.98;;;17.40;99.90;;;17.68;96.70;101487.78;5094531;28;20138;-73
2023/05/07 05:33:58;;;;;;;27.83;24.92;;;17.50;99.90;;;17.85;96.92;101495.41;5094352;28;20048;-73
2023/05/07 05:36:27;;;;;;;26.83;24.13;;;17.50;99.90;;;17.91;96.49;101506.84;5112990;28;20044;-73
2023/05/07 05:38:57;;;;;;;;;;;17.60;99.90;;;18.00;96.38;101503.09;5095321;28;20067;-73
2023/05/07 05:41:26;;;;;;;25.80;23.17;;;17.70;99.90;;;17.87;96.01;101466.81;5112579;28;19973;-73
2023/05/07 05:43:54;;;;;;;25.38;22.75;;;17.70;99.90;;;17.99;95.86;101507.53;5086443;28;20047;-74
2023/05/07 05:46:23;;;;;;;25.52;22.75;;;17.70;99.90;;;17.93;95.63;101491.63;5094612;28;20070;-73
2023/05/07 05:48:52;;;;;;;24.77;22.25;;;17.70;99.90;;;18.17;95.48;101510.69;5082847;28;20048;-73
2023/05/07 05:51:23;;;;;;;26.02;23.23;;;17.80;99.90;;;17.91;95.92;101508.63;5090588;28;20043;-74
2023/05/07 05:53:51;;;;;;;26.83;23.92;;;17.70;99.90;;;17.67;96.71;101512.75;5109498;28;20404;-73
2023/05/07 05:56:21;;;;;;;28.42;24.90;;;17.50;99.90;;;17.71;97.75;101511.78;5112683;28;20044;-73
2023/05/07 05:58:49;;;;;;;26.70;24.10;;;17.40;99.90;;;17.35;99.86;101519.72;5112694;28;20062;-73
2023/05/07 06:01:19;;;;;;;27.42;24.52;;;17.10;99.90;;;17.42;100.00;101511.53;5094391;28;20508;-73
2023/05/07 06:03:49;;;;;;;28.38;25.48;;;17.00;99.90;;;17.30;100.00;101516.28;5086098;28;20051;-74
2023/05/07 06:06:18;;;;;;;27.67;24.58;;;17.00;99.90;;;17.41;100.00;101512.47;5094361;28;20043;-74
2023/05/07 06:08:48;;;;;;;30.13;25.02;;;17.00;99.90;;;17.45;100.00;101510.59;5082582;28;20051;-74
2023/05/07 06:11:22;;;;;;;27.55;24.55;;;17.10;99.90;;;17.15;100.00;101514.78;5086370;28;20106;-74
2023/05/07 06:13:50;;;;;;;31.73;26.02;;;16.80;99.90;;;17.17;100.00;101516.53;5089857;28;20448;-73
2023/05/07 06:16:19;;;;;;;26.40;23.67;;;16.80;99.90;;;17.04;100.00;101512.38;5116001;28;20123;-73
2023/05/07 06:18:47;;;;;;;27.80;24.90;;;16.70;99.90;;;17.23;100.00;101520.00;5089398;28;20043;-73
2023/05/07 06:21:17;;;;;;;29.83;24.80;;;16.80;99.90;;;17.35;100.00;101525.06;5097753;28;20044;-74
2023/05/07 06:23:45;;;;;;;30.27;27.23;;;17.00;99.90;;;17.21;100.00;101511.13;5089605;28;20059;-73
2023/05/07 06:26:15;;;;;;;28.75;25.65;;;16.90;99.90;;;17.49;100.00;101517.66;5116064;28;20043;-73
2023/05/07 06:28:47;;;;;;;28.42;25.33;;;17.10;99.90;;;17.47;100.00;101515.00;5085574;28;20048;-73
2023/05/07 06:31:20;;;;;;;30.33;25.80;;;17.10;99.90;;;16.98;100.00;101436.75;5089048;28;20047;-73
2023/05/07 06:33:59;;;;;;;28.77;25.75;;;17.20;99.90;;;17.58;100.00;101525.47;5115651;28;20050;-73
2023/05/07 06:36:33;;;;;;;27.70;25.00;;;17.20;99.90;;;17.64;100.00;101511.97;5085494;28;20051;-73
2023/05/07 06:39:06;;;;;;;26.83;23.70;;;17.20;99.90;;;17.49;100.00;101526.59;5089289;28;20051;-73
2023/05/07 06:41:36;;;;;;;27.42;24.52;;;17.10;99.90;;;17.87;100.00;101520.34;5115317;28;20177;-73
2023/05/07 06:44:09;;;;;;;26.80;24.20;;;17.40;99.90;;;17.35;100.00;101511.69;5115695;28;20423;-73
2023/05/07 06:46:43;;;;;;;26.02;23.27;;;17.10;99.90;;;17.38;100.00;101514.31;5089415;28;20497;-74
2023/05/07 06:49:12;;;;;;;26.92;24.08;;;17.00;99.90;;;17.52;100.00;101521.16;5096914;28;20046;-73
2023/05/07 06:51:42;;;;;;;27.70;24.70;;;17.20;99.90;;;17.57;100.00;101505.00;5088129;28;20051;-73
2023/05/07 06:54:10;;;;;;;26.92;23.80;;;17.20;99.90;;;17.57;100.00;101529.97;5096801;28;20050;-73
2023/05/07 06:56:41;;;;;;;28.42;25.50;;;17.20;99.90;;;17.85;100.00;101528.41;5088656;28;20138;-73
2023/05/07 06:59:10;;;;;;;27.30;24.58;;;17.50;99.90;;;18.05;100.00;101527.94;5096894;28;20055;-73
2023/05/07 07:01:41;;;;;;;24.30;21.65;;;17.60;99.90;;;17.66;100.00;101527.06;5085345;28;20058;-73
2023/05/07 07:04:11;;;;;;;25.00;21.70;;;17.40;99.90;;;17.35;100.00;101531.31;5096179;28;20511;-71
2023/05/07 07:06:42;;;;;;;24.33;21.45;;;17.10;99.90;;;17.63;100.00;101526.28;5085358;28;20052;-74
2023/05/07 07:09:13;;;;;;;24.42;21.83;;;17.20;99.90;;;17.43;100.00;101505.28;5096713;28;20078;-73
2023/05/07 07:11:44;;;;;;;25.15;22.45;;;17.20;99.90;;;17.86;100.00;101529.28;5096566;28;20046;-73
2023/05/07 07:14:12;;;;;;;24.95;22.20;;;17.40;99.90;;;17.94;100.00;101538.03;5114769;28;20040;-73
2023/05/07 07:16:47;;;;;;;25.27;21.75;;;17.60;99.90;;;18.01;100.00;101531.59;5096166;28;20036;-73
2023/05/07 07:19:17;;;;;;;;;;;17.60;99.90;;;18.26;100.00;101532.75;5093045;28;20139;-73
2023/05/07 07:21:48;;;;;;;;;;;17.80;99.90;;;18.25;99.71;101538.16;5096591;28;19924;-73
2023/05/07 07:24:20;;;;;;;23.95;20.20;;;17.90;99.90;;;18.25;98.02;101541.72;5105335;28;19968;-73
2023/05/07 07:26:55;;;;;;;24.15;21.42;;;17.90;99.90;;;18.41;98.44;101540.38;5096048;28;20140;-73
2023/05/07 07:29:26;;;;;;;22.02;19.80;;;18.00;99.90;;;18.58;97.46;101534.66;5096174;28;20435;-73
2023/05/07 07:31:55;;;;;;;26.80;21.30;;;18.20;99.90;;;18.50;97.83;101539.31;5093210;28;20505;-73
2023/05/07 07:34:24;;;;;;;27.40;20.02;;;18.20;99.90;;;18.71;97.13;101539.63;5095756;28;20074;-73
2023/05/07 07:36:53;;;;;;;22.42;20.23;;;18.30;99.90;;;18.63;97.05;101540.75;5087763;28;20052;-73
2023/05/07 07:39:21;;;;;;;23.58;20.63;;;18.30;99.90;;;18.78;96.70;101540.31;5095922;28;20044;-73
2023/05/07 07:41:54;;;;;;;23.08;20.50;;;18.50;99.90;;;18.49;97.25;101542.91;5088104;28;20160;-74
2023/05/07 07:44:23;;;;;;;37.25;20.38;;;18.30;99.90;;;18.34;97.42;101537.91;5096094;28;20440;-74
2023/05/07 07:46:57;;;;;;;22.42;20.00;;;18.10;99.90;;;18.60;97.23;101536.34;5092193;28;20035;-73
2023/05/07 07:49:28;;;;;;;22.20;19.92;;;18.30;99.90;;;18.52;97.48;101527.66;5095523;28;20075;-74
2023/05/07 07:51:59;;;;;;;21.55;19.20;;;18.30;99.90;;;18.34;97.16;101540.59;5087660;28;20044;-73
2023/05/07 07:54:29;;;;;;;23.45;20.38;;;18.10;99.90;;;18.26;98.87;101543.47;5113721;28;20035;-73
2023/05/07 07:56:59;;;;;;;22.45;19.92;;;17.90;99.90;;;18.57;99.76;101541.78;5087091;28;20054;-74
2023/05/07 07:59:28;;;;;;;26.10;21.27;;;18.10;99.90;;;18.43;98.88;101533.22;5092560;28;20415;-74
2023/05/07 08:01:57;;;;;;;21.77;19.60;;;18.10;99.90;;;18.47;99.05;101534.03;5100261;28;20052;-73
2023/05/07 08:04:28;;;;;;;21.50;19.17;;;18.10;99.90;;;18.31;99.43;101538.84;5083365;28;20213;-73
2023/05/07 08:06:57;;;;;;;20.88;18.63;;;18.00;99.90;;;18.19;99.73;101547.22;5087386;28;20054;-73
2023/05/07 08:09:26;;;;;;;24.38;19.90;;;17.90;99.90;;;18.36;99.93;101546.78;5095312;28;20073;-73
2023/05/07 08:11:57;;;;;;;22.98;19.83;;;17.90;99.90;;;18.54;100.00;101552.56;5087132;28;20492;-73
2023/05/07 08:14:28;;;;;;;22.25;19.88;;;18.10;99.90;;;18.61;98.47;101551.50;5095293;28;20135;-73
2023/05/07 08:16:57;;;;;;;25.90;19.40;;;18.30;99.90;;;18.59;98.62;101539.94;5087031;28;20051;-74
2023/05/07 08:19:25;;;;;;;20.63;18.40;;;18.30;99.90;;;18.67;98.06;101556.72;5113603;28;20572;-74
2023/05/07 08:21:55;;;;;;;20.92;17.35;;;18.30;99.90;;;18.84;98.17;101561.59;5075079;28;20055;-73
2023/05/07 08:24:24;;;;;;;20.50;17.70;;;18.40;99.90;;;18.88;97.19;101571.31;5095203;28;20040;-73
2023/05/07 08:26:53;;;;;;;23.13;18.45;;;18.50;99.90;;;18.94;96.59;101565.81;5086956;28;20473;-73
2023/05/07 08:29:23;;;;;;;22.52;17.63;;;18.60;99.90;;;19.02;98.21;101566.47;5095152;28;20051;-73
2023/05/07 08:31:51;;;;;;;20.27;16.47;;;18.60;99.90;;;19.15;97.03;101567.88;5094693;28;20047;-73
2023/05/07 08:34:20;;;;;;;20.50;15.65;;;18.80;99.90;;;19.21;95.65;101566.81;5094573;28;20039;-73
2023/05/07 08:36:50;;;;;;;20.47;15.53;;;18.90;99.90;;;19.33;95.17;101550.41;5094771;28;20048;-73
2023/05/07 08:39:21;;;;;;;18.88;15.23;;;19.10;99.90;;;19.35;93.50;101578.06;5091625;28;20048;-74
2023/05/07 08:41:56;;;;;;;17.65;14.95;;;19.10;99.90;;;19.23;94.79;101554.25;5092041;28;20558;-74
2023/05/07 08:44:29;;;;;;;18.55;14.77;;;19.00;99.90;;;19.28;94.38;101582.69;5094830;28;20055;-74
2023/05/07 08:47:01;;;;;;;19.35;14.57;;;19.00;99.90;;;19.55;94.53;101578.38;5086660;28;20526;-74
2023/05/07 08:49:32;;;;;;;16.08;12.43;;;19.10;99.90;;;19.58;91.15;101578.28;5113034;28;20035;-74
2023/05/07 08:52:01;;;;;;;15.60;11.85;;;19.20;99.90;;;19.43;89.27;101581.44;5094627;28;20142;-74
2023/05/07 08:54:31;;;;;;;16.35;11.40;;;19.10;99.90;;;18.95;90.65;101580.97;5094562;28;20048;-73
2023/05/07 08:57:01;;;;;;;18.35;11.75;;;18.70;99.90;;;19.12;90.85;101589.44;5086703;28;20074;-74
2023/05/07 08:59:31;;;;;;;16.25;11.82;;;18.80;99.90;;;19.00;91.11;101589.78;5094741;28;20493;-74
2023/05/07 09:02:00;;;;;;;14.10;11.60;;;18.60;99.90;;;19.30;90.55;101586.22;5086717;28;20515;-73
2023/05/07 09:04:29;;;;;;;15.63;11.02;;;18.80;99.90;;;19.26;88.93;101589.91;5094334;28;20055;-73
2023/05/07 09:07:03;;;;;;;20.15;12.88;;;18.80;99.90;;;19.40;89.22;101595.81;5112913;28;20473;-73
2023/05/07 09:09:34;;;;;;;15.80;11.13;;;18.90;99.90;;;19.50;87.83;101597.28;5109099;28;20092;-73
2023/05/07 09:12:05;;;;;;;17.02;12.20;;;19.10;99.90;;;19.33;87.15;101585.28;5094625;28;20146;-75
2023/05/07 09:14:36;;;;;;;19.15;12.32;;;19.00;99.90;;;19.74;88.01;101593.84;5086477;28;20074;-74
2023/05/07 09:17:05;;;;;;;18.05;13.82;;;19.30;99.90;;;19.81;85.78;101591.88;5086040;28;20106;-74
2023/05/07 09:19:34;;;;;;;17.30;12.68;;;19.50;99.90;;;19.89;85.45;101600.59;5094406;28;20094;-73
2023/05/07 09:22:07;;;;;;;18.10;13.00;;;19.60;99.90;;;20.13;85.88;101594.41;5094399;28;20048;-73
2023/05/07 09:24:49;;;;;;;19.60;15.85;;;19.70;99.90;;;19.91;87.10;101601.41;5090750;28;20265;-74
2023/05/07 09:27:21;;;;;;;17.15;14.90;;;19.60;99.90;;;19.66;89.03;101593.25;5094028;28;20051;-75
2023/05/07 09:29:51;;;;;;;18.88;16.70;;;19.40;99.90;;;19.70;88.79;101604.75;5094406;28;20503;-73
2023/05/07 09:32:20;;;;;;;20.55;15.63;;;19.30;99.90;;;19.85;89.08;101601.59;5087762;28;20559;-73
2023/05/07 09:34:49;;;;;;;17.92;14.90;;;19.40;99.90;;;19.84;89.24;101597.13;5094478;28;20046;-73
2023/05/07 09:37:20;;;;;;;17.58;13.75;;;19.50;99.90;;;20.27;88.55;101597.59;5086150;28;20044;-73
2023/05/07 09:39:51;;;;;;;17.98;13.70;;;19.70;99.90;;;20.45;85.75;101604.16;5094221;28;20104;-73
2023/05/07 09:42:26;;;;;;;16.48;12.40;;;20.00;99.90;;;20.46;82.56;101600.56;5086336;28;20051;-73
2023/05/07 09:45:00;;;;;;;15.52;12.23;;;20.10;99.90;;;20.60;81.61;101600.97;5090043;28;20903;-72
2023/05/07 09:47:40;;;;;;;16.63;12.70;;;20.20;99.90;;;20.79;79.67;101590.47;5098143;28;20047;-71
2023/05/07 09:50:11;;;;;;;16.27;12.02;;;20.50;99.90;;;21.11;79.26;101609.06;5090013;28;20055;-72
2023/05/07 09:52:41;;;;;;;16.05;11.57;;;20.70;99.90;;;21.39;79.86;101609.78;5098205;28;20043;-72
2023/05/07 09:55:12;;;;;;;16.58;12.20;;;21.00;99.90;;;21.46;78.40;101617.63;5086180;28;20070;-72
2023/05/07 09:57:43;;;;;;;16.88;11.15;;;21.20;99.90;;;21.55;76.20;101600.22;5116300;28;20476;-72
2023/05/07 10:00:15;;;;;;;14.40;11.00;;;21.40;99.90;;;21.88;75.14;101617.81;5115852;28;20040;-72
2023/05/07 10:02:51;;;;;;;14.60;11.80;;;21.60;99.90;;;21.53;76.18;101621.81;5116521;28;20062;-73
2023/05/07 10:05:28;;;;;;;17.58;11.90;;;21.30;99.90;;;20.98;77.94;101619.31;5095390;28;20052;-72
2023/05/07 10:08:00;;;;;;;16.00;11.25;;;20.80;99.90;;;20.94;77.26;101612.31;5097847;28;20054;-73
2023/05/07 10:10:34;;;;;;;13.75;11.25;;;20.70;99.90;;;21.02;76.54;101612.94;5089735;28;20039;-73
2023/05/07 10:13:05;;;;;;;14.65;11.07;;;20.60;99.90;;;20.99;76.21;101610.34;5094371;28;20040;-72